Time;durP1;ratioP1;P1;durP2;ratioP2;P2;SDS_P1;SDS_P2;PMS_P1;PMS_P2;Temp;Humidity;BMP_temperature;BMP_pressure;BME280_temperature;BME280_humidity;BME280_pressure;Samples;Min_cycle;Max_cycle;Signal;HPM_P1;HPM_P2
2021/06/20 00:00:23;;;;;;;25.05;22.52;;;22.70;61.50;;;;;;4959517;29;20253;-80
2021/06/20 00:02:49;;;;;;;24.27;21.77;;;22.70;61.60;;;;;;4960976;28;20177;-80
2021/06/20 00:05:19;;;;;;;24.73;22.00;;;22.70;61.60;;;;;;4959626;29;20189;-80
2021/06/20 00:07:48;;;;;;;24.17;21.67;;;22.70;61.70;;;;;;4960566;28;20154;-79
2021/06/20 00:10:19;;;;;;;25.13;22.42;;;22.70;61.80;;;;;;4911593;29;20181;-80
2021/06/20 00:12:47;;;;;;;24.30;21.73;;;22.60;61.70;;;;;;4927654;29;20181;-80
2021/06/20 00:15:16;;;;;;;25.00;22.35;;;22.60;61.70;;;;;;4910930;29;20181;-80
2021/06/20 00:17:42;;;;;;;24.20;21.65;;;22.60;61.70;;;;;;4910214;29;20189;-80
2021/06/20 00:20:09;;;;;;;25.05;22.40;;;22.60;62.60;;;;;;4958927;29;20660;-80
2021/06/20 00:22:36;;;;;;;24.13;21.55;;;22.70;61.80;;;;;;4959905;28;20215;-80
2021/06/20 00:25:02;;;;;;;24.70;22.10;;;22.60;61.70;;;;;;4959917;29;20208;-80
2021/06/20 00:27:29;;;;;;;24.15;21.63;;;22.60;61.80;;;;;;4960084;28;20279;-80
2021/06/20 00:29:55;;;;;;;23.92;21.50;;;22.60;61.80;;;;;;4959668;29;20189;-80
2021/06/20 00:32:21;;;;;;;24.20;21.63;;;22.60;61.80;;;;;;4959902;29;20162;-80
2021/06/20 00:34:47;;;;;;;24.77;22.17;;;22.60;61.80;;;;;;4958528;29;20177;-80
2021/06/20 00:37:13;;;;;;;24.38;21.88;;;22.60;61.80;;;;;;4958137;29;20149;-80
2021/06/20 00:39:38;;;;;;;23.30;20.90;;;22.60;61.80;;;;;;4960053;29;20185;-80
2021/06/20 00:42:04;;;;;;;24.58;21.98;;;22.60;61.90;;;;;;4959563;29;20525;-80
2021/06/20 00:44:41;;;;;;;24.50;22.00;;;22.60;61.90;;;;;;4958304;29;20584;-80
2021/06/20 00:47:10;;;;;;;24.33;21.83;;;22.60;61.90;;;;;;4959126;29;20169;-79
2021/06/20 00:49:36;;;;;;;24.90;22.02;;;22.60;62.00;;;;;;4894402;29;20668;-80
2021/06/20 00:52:05;;;;;;;25.13;22.52;;;22.60;61.90;;;;;;4958077;29;20173;-80
2021/06/20 00:54:34;;;;;;;24.77;22.17;;;22.60;61.80;;;;;;4910211;29;20552;-80
2021/06/20 00:57:02;;;;;;;24.40;21.80;;;22.60;62.00;;;;;;4925403;29;20189;-80
2021/06/20 00:59:30;;;;;;;24.75;22.15;;;22.60;62.00;;;;;;4910145;29;20186;-80
2021/06/20 01:01:58;;;;;;;23.98;21.48;;;22.60;61.90;;;;;;4910317;29;20185;-80
2021/06/20 01:04:26;;;;;;;24.20;21.70;;;22.60;62.00;;;;;;4909369;29;20318;-80
2021/06/20 01:06:52;;;;;;;24.83;22.33;;;22.50;61.80;;;;;;4925208;29;20522;-79
2021/06/20 01:09:20;;;;;;;24.48;21.88;;;22.60;61.90;;;;;;4960000;29;20338;-80
2021/06/20 01:11:48;;;;;;;23.90;21.42;;;22.60;62.00;;;;;;4925154;29;20201;-79
2021/06/20 01:14:17;;;;;;;24.45;21.95;;;22.60;62.00;;;;;;4925264;29;20680;-80
2021/06/20 01:16:45;;;;;;;24.70;22.15;;;22.60;62.00;;;;;;4909980;29;20189;-80
2021/06/20 01:19:13;;;;;;;24.55;21.95;;;22.60;62.10;;;;;;4925223;29;20802;-80
2021/06/20 01:21:39;;;;;;;24.27;21.77;;;22.50;62.10;;;;;;4925678;29;20275;-80
2021/06/20 01:24:05;;;;;;;24.38;21.83;;;22.50;62.10;;;;;;4941732;29;20170;-80
2021/06/20 01:26:32;;;;;;;24.52;22.02;;;22.50;62.10;;;;;;4957254;29;20225;-80
2021/06/20 01:29:05;;;;;;;24.63;22.02;;;22.60;62.10;;;;;;4957247;28;20652;-80
2021/06/20 01:31:32;;;;;;;25.40;22.65;;;22.50;62.10;;;;;;4911396;29;20189;-80
2021/06/20 01:33:58;;;;;;;23.25;20.90;;;22.50;62.00;;;;;;4958054;29;20146;-80
2021/06/20 01:36:24;;;;;;;23.73;21.20;;;22.50;62.10;;;;;;4941742;29;20154;-79
2021/06/20 01:38:50;;;;;;;24.25;21.75;;;22.50;62.10;;;;;;4958599;29;20640;-80
2021/06/20 01:41:15;;;;;;;24.30;21.80;;;22.50;62.20;;;;;;4957475;29;20176;-80
2021/06/20 01:43:41;;;;;;;24.23;21.75;;;22.50;62.20;;;;;;4958925;29;20632;-80
2021/06/20 01:46:07;;;;;;;23.98;21.40;;;22.50;62.20;;;;;;4959154;29;20189;-80
2021/06/20 01:48:32;;;;;;;24.23;21.63;;;22.50;62.20;;;;;;4956931;29;20514;-80
2021/06/20 01:50:58;;;;;;;24.77;22.17;;;22.50;62.20;;;;;;4958908;28;20162;-80
2021/06/20 01:53:24;;;;;;;24.23;21.83;;;22.60;62.20;;;;;;4957142;29;20162;-80
2021/06/20 01:55:49;;;;;;;23.98;21.58;;;22.50;62.20;;;;;;4941549;29;20169;-80
2021/06/20 01:58:17;;;;;;;24.30;21.73;;;22.50;62.10;;;;;;4958921;29;20166;-80
2021/06/20 02:00:47;;;;;;;24.38;21.77;;;22.50;62.10;;;;;;4957614;29;20305;-80
2021/06/20 02:03:16;;;;;;;24.05;21.50;;;22.50;62.10;;;;;;4924755;29;20191;-80
2021/06/20 02:05:46;;;;;;;24.02;21.48;;;22.50;62.20;;;;;;4925145;29;20284;-80
2021/06/20 02:08:18;;;;;;;24.55;21.77;;;22.50;62.10;;;;;;4924479;29;20224;-80
2021/06/20 02:10:49;;;;;;;24.27;21.77;;;22.50;62.20;;;;;;4925178;29;20224;-79
2021/06/20 02:13:17;;;;;;;24.58;22.08;;;22.50;62.20;;;;;;4909010;29;20261;-80
2021/06/20 02:15:45;;;;;;;23.80;21.48;;;22.50;62.20;;;;;;4924778;29;20548;-79
2021/06/20 02:18:13;;;;;;;23.80;21.33;;;22.50;62.30;;;;;;4892905;29;20207;-80
2021/06/20 02:20:41;;;;;;;24.70;22.20;;;22.50;62.30;;;;;;4924041;29;20215;-80
2021/06/20 02:23:08;;;;;;;24.30;21.70;;;22.50;62.30;;;;;;4908184;29;20188;-80
2021/06/20 02:25:34;;;;;;;24.35;21.85;;;22.50;62.30;;;;;;4923770;29;20216;-79
2021/06/20 02:28:02;;;;;;;23.50;21.02;;;22.50;62.30;;;;;;4958042;28;20161;-80
2021/06/20 02:30:29;;;;;;;23.70;21.30;;;22.50;62.30;;;;;;4908661;29;20185;-80
2021/06/20 02:32:55;;;;;;;23.83;21.42;;;22.50;62.30;;;;;;4907968;29;20574;-80
2021/06/20 02:35:21;;;;;;;24.73;22.10;;;22.50;62.30;;;;;;4956125;29;20168;-80
2021/06/20 02:37:47;;;;;;;23.63;21.13;;;22.40;62.50;;;;;;4957526;29;20232;-79
2021/06/20 02:40:13;;;;;;;23.23;20.83;;;22.40;62.30;;;;;;4956116;28;20162;-80
2021/06/20 02:42:39;;;;;;;24.23;21.63;;;22.40;62.40;;;;;;4956435;29;20166;-79
2021/06/20 02:45:06;;;;;;;23.67;21.27;;;22.50;62.50;;;;;;4939639;29;20232;-79
2021/06/20 02:47:33;;;;;;;23.90;21.40;;;22.40;62.40;;;;;;4956816;28;20160;-80
2021/06/20 02:50:00;;;;;;;23.90;21.40;;;22.40;62.40;;;;;;4922505;29;20189;-79
2021/06/20 02:52:28;;;;;;;24.90;22.30;;;22.50;62.50;;;;;;4906938;29;20592;-80
2021/06/20 02:54:56;;;;;;;23.48;21.08;;;22.40;62.30;;;;;;4906785;29;20185;-80
2021/06/20 02:57:25;;;;;;;24.63;22.02;;;22.40;62.30;;;;;;4923339;29;20240;-80
2021/06/20 02:59:53;;;;;;;24.38;21.85;;;22.40;62.40;;;;;;4922827;29;20588;-79
2021/06/20 03:02:21;;;;;;;23.73;21.25;;;22.40;62.50;;;;;;4922525;29;20197;-80
2021/06/20 03:04:50;;;;;;;24.08;21.58;;;22.50;62.50;;;;;;4906585;29;20205;-80
2021/06/20 03:07:17;;;;;;;24.13;21.63;;;22.40;62.50;;;;;;4907139;29;20554;-80
2021/06/20 03:09:45;;;;;;;23.77;21.13;;;22.40;62.50;;;;;;4922055;29;20181;-80
2021/06/20 03:12:11;;;;;;;23.65;21.20;;;22.40;62.50;;;;;;4906463;29;20193;-79
2021/06/20 03:14:37;;;;;;;24.00;21.52;;;22.40;62.50;;;;;;4938868;29;20687;-80
2021/06/20 03:17:03;;;;;;;23.60;21.13;;;22.40;62.60;;;;;;4954599;29;20306;-80
2021/06/20 03:19:29;;;;;;;24.20;21.70;;;22.40;62.50;;;;;;4938944;29;20221;-79
2021/06/20 03:22:00;;;;;;;24.80;22.25;;;22.40;62.50;;;;;;4956129;28;20166;-80
2021/06/20 03:24:27;;;;;;;24.05;21.60;;;22.40;62.50;;;;;;4956354;28;20217;-80
2021/06/20 03:26:54;;;;;;;24.05;21.55;;;22.30;62.50;;;;;;4954900;29;20584;-80
2021/06/20 03:29:21;;;;;;;24.05;21.55;;;22.30;62.50;;;;;;4906307;29;20189;-80
2021/06/20 03:31:49;;;;;;;24.08;21.58;;;22.40;62.60;;;;;;4890923;29;20185;-80
2021/06/20 03:34:15;;;;;;;23.33;20.90;;;22.40;62.60;;;;;;4906791;29;20188;-80
2021/06/20 03:36:41;;;;;;;23.77;21.33;;;22.40;62.50;;;;;;4956367;29;20166;-80
2021/06/20 03:39:07;;;;;;;23.40;20.90;;;22.40;62.50;;;;;;4955538;29;20165;-80
2021/06/20 03:41:33;;;;;;;23.92;21.35;;;22.40;62.50;;;;;;4938594;29;20217;-80
2021/06/20 03:43:58;;;;;;;22.40;20.15;;;22.40;62.50;;;;;;4938659;29;20174;-80
2021/06/20 03:46:24;;;;;;;23.60;21.10;;;22.40;62.50;;;;;;4955717;29;20245;-79
2021/06/20 03:48:50;;;;;;;23.27;20.70;;;22.40;62.50;;;;;;4956086;29;20188;-80
2021/06/20 03:51:15;;;;;;;23.73;21.23;;;22.40;62.50;;;;;;4956172;28;20574;-80
2021/06/20 03:53:41;;;;;;;23.27;20.88;;;22.40;62.50;;;;;;4959195;28;20288;-80
2021/06/20 03:56:07;;;;;;;24.65;22.10;;;22.40;62.40;;;;;;4959301;28;20158;-79
2021/06/20 03:58:33;;;;;;;23.90;21.40;;;22.40;62.40;;;;;;4959591;29;20173;-79
2021/06/20 04:00:59;;;;;;;24.30;21.70;;;22.40;62.40;;;;;;4958962;28;20311;-79
2021/06/20 04:03:24;;;;;;;23.45;21.13;;;22.40;62.50;;;;;;4957603;29;20202;-79
2021/06/20 04:05:52;;;;;;;23.13;20.73;;;22.40;62.50;;;;;;4958903;29;20188;-80
2021/06/20 04:08:19;;;;;;;23.38;20.88;;;22.40;62.50;;;;;;4925438;29;20272;-80
2021/06/20 04:10:46;;;;;;;23.75;21.35;;;22.40;62.50;;;;;;4924645;29;20186;-79
2021/06/20 04:13:13;;;;;;;24.70;22.20;;;22.40;62.40;;;;;;4924479;29;20196;-80
2021/06/20 04:15:39;;;;;;;23.67;21.17;;;22.40;62.40;;;;;;4908815;29;20204;-80
2021/06/20 04:18:06;;;;;;;23.23;20.83;;;22.40;62.40;;;;;;4924575;29;20510;-79
2021/06/20 04:20:33;;;;;;;23.58;21.10;;;22.50;62.30;;;;;;4924864;29;20185;-80
2021/06/20 04:22:59;;;;;;;23.55;21.05;;;22.50;62.20;;;;;;4924516;29;20186;-79
2021/06/20 04:25:25;;;;;;;22.70;20.42;;;22.40;62.30;;;;;;4957828;29;20191;-80
2021/06/20 04:27:50;;;;;;;23.05;20.75;;;22.50;62.30;;;;;;4957975;29;20525;-80
2021/06/20 04:30:17;;;;;;;22.50;20.20;;;22.40;62.20;;;;;;4941001;29;20209;-80
2021/06/20 04:32:43;;;;;;;23.15;20.75;;;22.40;62.20;;;;;;4956835;29;20629;-79
2021/06/20 04:35:13;;;;;;;24.75;22.17;;;22.50;62.10;;;;;;4956699;29;20621;-79
2021/06/20 04:37:39;;;;;;;23.42;21.05;;;22.50;61.80;;;;;;4957760;28;20192;-80
2021/06/20 04:40:06;;;;;;;23.67;21.17;;;22.60;61.70;;;;;;4957664;28;20161;-80
2021/06/20 04:42:33;;;;;;;23.77;21.27;;;22.60;61.60;;;;;;4957738;28;20162;-79
2021/06/20 04:45:00;;;;;;;23.35;20.92;;;22.60;61.60;;;;;;4957662;28;20198;-80
2021/06/20 04:47:27;;;;;;;23.23;20.83;;;22.60;61.40;;;;;;4957437;29;20173;-80
2021/06/20 04:49:53;;;;;;;23.67;21.17;;;22.60;61.30;;;;;;4957397;28;20157;-79
2021/06/20 04:52:19;;;;;;;23.58;21.17;;;22.70;61.40;;;;;;4940540;29;20671;-79
2021/06/20 04:54:52;;;;;;;23.80;21.40;;;22.70;61.30;;;;;;4956133;29;20185;-80
2021/06/20 04:57:23;;;;;;;22.50;20.23;;;22.60;61.30;;;;;;4957326;28;20153;-79
2021/06/20 04:59:50;;;;;;;23.35;20.95;;;22.60;61.40;;;;;;4957212;28;20580;-80
2021/06/20 05:02:15;;;;;;;23.05;20.65;;;22.70;61.40;;;;;;4940303;29;20256;-79
2021/06/20 05:04:41;;;;;;;23.33;20.92;;;22.70;61.20;;;;;;4956990;29;20280;-79
2021/06/20 05:07:07;;;;;;;22.42;20.20;;;22.70;61.20;;;;;;4957003;29;20154;-79
2021/06/20 05:09:34;;;;;;;23.98;21.48;;;22.70;61.30;;;;;;4956125;29;20191;-80
2021/06/20 05:11:59;;;;;;;23.75;21.25;;;22.70;61.20;;;;;;4956017;29;20178;-79
2021/06/20 05:14:25;;;;;;;23.50;21.10;;;22.70;61.10;;;;;;4956938;29;20204;-80
2021/06/20 05:16:52;;;;;;;23.10;20.70;;;22.70;61.20;;;;;;4955598;29;20166;-79
2021/06/20 05:19:18;;;;;;;23.30;20.88;;;22.70;61.20;;;;;;4955825;29;20164;-80
2021/06/20 05:21:45;;;;;;;22.48;20.15;;;22.70;61.20;;;;;;4957069;29;20154;-79
2021/06/20 05:24:12;;;;;;;21.95;19.73;;;22.70;61.20;;;;;;4955608;29;20157;-79
2021/06/20 05:26:37;;;;;;;22.85;20.55;;;22.60;61.30;;;;;;4956892;28;20735;-79
2021/06/20 05:29:03;;;;;;;22.23;20.02;;;22.60;61.40;;;;;;4957176;29;20252;-79
2021/06/20 05:31:29;;;;;;;23.70;21.20;;;22.60;61.50;;;;;;4957289;29;20161;-79
2021/06/20 05:33:55;;;;;;;22.75;20.42;;;22.60;61.50;;;;;;4955686;29;20161;-79
2021/06/20 05:36:20;;;;;;;23.35;20.85;;;22.60;61.50;;;;;;4955502;29;20166;-80
2021/06/20 05:38:46;;;;;;;22.42;20.13;;;22.60;61.50;;;;;;4956633;29;20540;-79
2021/06/20 05:41:12;;;;;;;23.42;20.95;;;22.60;61.40;;;;;;4956587;28;20178;-79
2021/06/20 05:43:38;;;;;;;23.50;21.05;;;22.60;61.30;;;;;;4923246;29;20219;-79
2021/06/20 05:46:04;;;;;;;23.27;20.90;;;22.70;61.40;;;;;;4956147;29;20205;-79
2021/06/20 05:48:29;;;;;;;22.90;20.52;;;22.60;61.30;;;;;;4956302;28;20220;-80
2021/06/20 05:50:55;;;;;;;23.08;20.67;;;22.60;62.20;;;;;;4956356;29;20577;-79
2021/06/20 05:53:21;;;;;;;23.65;21.20;;;22.60;61.30;;;;;;4955059;29;20528;-79
2021/06/20 05:55:47;;;;;;;22.92;20.52;;;22.60;61.30;;;;;;4956076;29;20165;-79
2021/06/20 05:58:14;;;;;;;24.05;21.52;;;22.70;61.40;;;;;;4922502;29;20197;-80
2021/06/20 06:00:41;;;;;;;23.08;20.67;;;22.70;61.40;;;;;;4922573;29;20197;-79
2021/06/20 06:03:08;;;;;;;23.30;20.90;;;22.70;61.40;;;;;;4906689;29;20570;-80
2021/06/20 06:05:34;;;;;;;23.02;20.63;;;22.70;61.20;;;;;;4955763;29;20186;-79
2021/06/20 06:08:00;;;;;;;23.05;20.75;;;22.70;61.00;;;;;;4938814;29;20248;-79
2021/06/20 06:10:26;;;;;;;22.92;20.52;;;22.80;60.90;;;;;;4955916;28;20636;-79
2021/06/20 06:12:52;;;;;;;22.98;20.58;;;22.70;61.10;;;;;;4923092;29;20216;-80
2021/06/20 06:15:18;;;;;;;22.95;20.65;;;22.80;61.00;;;;;;4955545;28;20727;-79
2021/06/20 06:17:44;;;;;;;24.33;21.73;;;22.70;61.00;;;;;;4954801;29;20165;-80
2021/06/20 06:20:10;;;;;;;23.45;21.05;;;22.70;61.00;;;;;;4954559;29;20197;-79
2021/06/20 06:22:35;;;;;;;23.40;20.92;;;22.70;61.00;;;;;;4954515;29;20525;-80
2021/06/20 06:25:02;;;;;;;22.90;20.50;;;22.80;61.00;;;;;;4955445;29;20660;-79
2021/06/20 06:27:27;;;;;;;22.98;20.58;;;22.80;60.90;;;;;;4954057;29;20614;-79
2021/06/20 06:29:53;;;;;;;22.50;20.20;;;22.80;60.80;;;;;;4955728;29;20165;-79
2021/06/20 06:32:19;;;;;;;23.42;21.02;;;22.80;60.80;;;;;;4955490;29;20195;-80
2021/06/20 06:34:45;;;;;;;23.67;21.17;;;22.90;60.70;;;;;;4955515;29;20229;-79
2021/06/20 06:37:11;;;;;;;22.92;20.55;;;22.90;60.80;;;;;;4955671;28;20170;-79
2021/06/20 06:39:36;;;;;;;22.75;20.45;;;22.90;60.60;;;;;;4955467;28;20150;-79
2021/06/20 06:42:03;;;;;;;22.60;20.27;;;22.80;60.70;;;;;;4955323;29;20237;-80
2021/06/20 06:44:29;;;;;;;22.70;20.45;;;22.90;60.60;;;;;;4955332;28;20192;-79
2021/06/20 06:46:55;;;;;;;22.73;20.52;;;22.90;60.30;;;;;;4955339;29;20158;-79
2021/06/20 06:49:20;;;;;;;23.52;21.00;;;22.90;60.20;;;;;;4955263;29;20150;-80
2021/06/20 06:51:46;;;;;;;22.23;19.98;;;23.00;60.10;;;;;;4955580;28;20252;-79
2021/06/20 06:54:12;;;;;;;22.27;20.08;;;23.00;60.20;;;;;;4938021;29;20162;-79
2021/06/20 06:56:38;;;;;;;23.23;20.88;;;23.00;60.20;;;;;;4953977;29;20625;-79
2021/06/20 06:59:04;;;;;;;22.85;20.55;;;23.10;59.80;;;;;;4955207;29;20609;-80
2021/06/20 07:01:30;;;;;;;21.90;19.70;;;23.20;59.80;;;;;;4955206;28;20157;-79
2021/06/20 07:03:55;;;;;;;23.40;21.02;;;23.20;59.80;;;;;;4953982;29;20158;-79
2021/06/20 07:06:22;;;;;;;22.48;20.15;;;23.00;59.90;;;;;;4954381;29;20517;-79
2021/06/20 07:08:47;;;;;;;22.40;20.13;;;23.00;60.00;;;;;;4953942;29;20158;-79
2021/06/20 07:11:13;;;;;;;22.83;20.52;;;23.10;59.70;;;;;;4954227;29;20189;-80
2021/06/20 07:13:39;;;;;;;23.15;20.77;;;23.20;59.70;;;;;;4953775;29;20240;-79
2021/06/20 07:16:05;;;;;;;23.05;20.65;;;23.20;59.70;;;;;;4953994;29;20236;-79
2021/06/20 07:18:31;;;;;;;23.08;20.77;;;23.20;59.60;;;;;;4953849;29;20181;-79
2021/06/20 07:20:57;;;;;;;23.48;21.08;;;23.10;59.70;;;;;;4955037;29;20193;-79
2021/06/20 07:23:22;;;;;;;21.27;19.17;;;23.20;59.70;;;;;;4953816;29;20157;-80
2021/06/20 07:25:48;;;;;;;22.08;19.77;;;23.20;59.50;;;;;;4954121;28;20189;-79
2021/06/20 07:28:14;;;;;;;22.98;20.58;;;23.30;59.40;;;;;;4958400;29;20576;-79
2021/06/20 07:30:39;;;;;;;21.83;19.63;;;23.20;60.10;;;;;;4958688;29;20627;-79
2021/06/20 07:33:05;;;;;;;21.75;19.65;;;23.20;59.50;;;;;;4957772;29;20248;-79
2021/06/20 07:35:31;;;;;;;23.52;21.13;;;23.40;59.40;;;;;;4958596;29;20181;-79
2021/06/20 07:37:57;;;;;;;22.05;19.85;;;23.40;59.00;;;;;;4958601;29;20166;-80
2021/06/20 07:40:22;;;;;;;22.63;20.33;;;23.40;59.00;;;;;;4957404;29;20162;-79
2021/06/20 07:42:48;;;;;;;21.83;19.63;;;23.40;58.90;;;;;;4957332;29;20196;-79
2021/06/20 07:45:16;;;;;;;22.27;20.08;;;23.40;59.00;;;;;;4958393;29;20244;-79
2021/06/20 07:47:43;;;;;;;21.85;19.63;;;23.50;59.00;;;;;;4924668;29;20192;-80
2021/06/20 07:50:12;;;;;;;22.00;19.77;;;23.40;58.90;;;;;;4909164;29;20416;-79
2021/06/20 07:52:39;;;;;;;22.17;19.88;;;23.50;58.70;;;;;;4908933;29;20675;-79
2021/06/20 07:55:06;;;;;;;21.85;19.65;;;23.60;58.70;;;;;;4924446;29;20189;-79
2021/06/20 07:57:32;;;;;;;22.17;19.88;;;23.50;58.70;;;;;;4941262;29;20220;-80
2021/06/20 07:59:57;;;;;;;22.60;20.35;;;23.50;58.60;;;;;;4958132;29;20150;-79
2021/06/20 08:02:23;;;;;;;23.05;20.85;;;23.50;58.70;;;;;;4958156;29;20264;-80
2021/06/20 08:04:49;;;;;;;22.40;20.15;;;23.40;59.10;;;;;;4958329;29;20197;-79
2021/06/20 08:07:15;;;;;;;22.33;20.02;;;23.40;59.10;;;;;;4958170;29;20688;-79
2021/06/20 08:09:41;;;;;;;23.15;20.75;;;23.50;58.90;;;;;;4941180;29;20158;-79
2021/06/20 08:12:08;;;;;;;21.10;18.98;;;23.50;58.80;;;;;;4958301;28;20217;-79
2021/06/20 08:14:34;;;;;;;21.88;19.63;;;23.50;58.60;;;;;;4957866;28;20248;-79
2021/06/20 08:17:00;;;;;;;22.30;20.02;;;23.60;58.60;;;;;;4956979;29;20180;-79
2021/06/20 08:19:27;;;;;;;21.38;19.17;;;23.50;58.60;;;;;;4956662;29;20610;-79
2021/06/20 08:21:54;;;;;;;21.10;19.00;;;23.60;58.60;;;;;;4908395;29;20545;-79
2021/06/20 08:24:21;;;;;;;21.42;19.23;;;23.60;58.50;;;;;;4923903;29;20206;-79
2021/06/20 08:26:47;;;;;;;22.45;20.15;;;23.70;58.50;;;;;;4908066;29;20237;-79
2021/06/20 08:29:13;;;;;;;21.65;19.52;;;23.60;58.50;;;;;;4957666;29;20245;-79
2021/06/20 08:31:39;;;;;;;21.92;19.70;;;23.60;58.60;;;;;;4958272;28;20162;-79
2021/06/20 08:34:07;;;;;;;21.63;19.33;;;23.60;58.50;;;;;;4957120;29;20546;-79
2021/06/20 08:36:33;;;;;;;22.42;20.23;;;23.60;58.50;;;;;;4957903;28;20539;-79
2021/06/20 08:38:58;;;;;;;21.83;19.52;;;23.60;58.60;;;;;;4957706;28;20177;-78
2021/06/20 08:41:24;;;;;;;21.85;19.58;;;23.60;58.70;;;;;;4958064;29;20157;-79
2021/06/20 08:43:51;;;;;;;22.55;20.25;;;23.60;58.60;;;;;;4958068;29;20580;-79
2021/06/20 08:46:17;;;;;;;22.17;19.85;;;23.60;58.70;;;;;;4958698;28;20198;-79
2021/06/20 08:48:43;;;;;;;21.50;19.35;;;23.50;58.90;;;;;;4957073;29;20166;-79
2021/06/20 08:51:10;;;;;;;21.45;19.15;;;23.50;58.80;;;;;;4957034;29;20169;-79
2021/06/20 08:53:36;;;;;;;22.35;20.05;;;23.60;58.60;;;;;;4958552;29;20620;-79
2021/06/20 08:56:02;;;;;;;22.33;20.02;;;23.60;58.50;;;;;;4958467;29;20188;-80
2021/06/20 08:58:32;;;;;;;21.85;19.65;;;23.60;58.60;;;;;;4958149;28;20158;-79
2021/06/20 09:00:58;;;;;;;21.52;19.30;;;23.40;58.80;;;;;;4956861;29;20252;-79
2021/06/20 09:03:24;;;;;;;22.23;20.02;;;23.50;58.80;;;;;;4956782;29;20166;-79
2021/06/20 09:06:24;;;;;;;20.55;18.55;;;23.50;58.70;;;;;;4957902;29;20272;-79
2021/06/20 09:08:53;;;;;;;22.13;19.90;;;23.60;58.60;;;;;;4957527;28;20153;-79
2021/06/20 09:11:29;;;;;;;22.92;20.52;;;23.60;58.60;;;;;;4957030;28;20158;-79
2021/06/20 09:14:09;;;;;;;22.60;20.30;;;23.40;59.60;;;;;;4957017;28;20161;-79
2021/06/20 09:16:44;;;;;;;22.98;20.67;;;23.50;59.00;;;;;;4956897;28;20189;-79
2021/06/20 09:19:09;;;;;;;22.67;20.40;;;23.50;59.00;;;;;;4957019;28;20204;-79
2021/06/20 09:21:35;;;;;;;22.92;20.55;;;23.40;59.10;;;;;;4956873;29;20617;-79
2021/06/20 09:24:01;;;;;;;21.90;19.70;;;23.40;59.10;;;;;;4955517;29;20524;-79
2021/06/20 09:26:40;;;;;;;21.73;19.52;;;23.30;59.20;;;;;;4956697;29;20652;-79
2021/06/20 09:29:06;;;;;;;22.55;20.15;;;23.30;59.20;;;;;;4955483;29;20161;-79
2021/06/20 09:31:48;;;;;;;22.05;19.75;;;23.40;59.20;;;;;;4955516;29;20210;-79
2021/06/20 09:34:14;;;;;;;21.55;19.42;;;23.40;59.00;;;;;;4955293;29;20192;-79
2021/06/20 09:36:41;;;;;;;22.45;20.15;;;23.40;59.20;;;;;;4939396;29;20193;-79
2021/06/20 09:39:20;;;;;;;21.55;19.42;;;23.40;59.30;;;;;;4954796;29;20529;-79
2021/06/20 09:42:01;;;;;;;21.45;19.27;;;23.50;59.10;;;;;;4956352;28;20190;-79
2021/06/20 09:44:36;;;;;;;21.95;19.67;;;23.40;59.20;;;;;;4956091;28;20154;-79
2021/06/20 09:47:02;;;;;;;21.30;19.20;;;23.30;59.30;;;;;;4955054;29;20157;-79
2021/06/20 09:49:28;;;;;;;22.00;19.80;;;23.30;59.30;;;;;;4955147;28;20160;-79
2021/06/20 09:51:55;;;;;;;21.65;19.42;;;23.40;59.20;;;;;;4956125;29;20189;-79
2021/06/20 09:54:37;;;;;;;22.13;19.85;;;23.40;59.10;;;;;;4954923;29;20153;-79
2021/06/20 09:57:04;;;;;;;21.23;19.13;;;23.40;59.30;;;;;;4954803;29;20170;-80
2021/06/20 09:59:31;;;;;;;22.05;19.85;;;23.30;59.30;;;;;;4954733;29;20160;-79
2021/06/20 10:02:11;;;;;;;23.45;21.05;;;23.30;59.40;;;;;;4938824;29;20177;-79
2021/06/20 10:04:42;;;;;;;22.20;19.95;;;23.30;59.70;;;;;;4954691;29;20259;-79
2021/06/20 10:07:09;;;;;;;22.25;19.95;;;23.20;59.70;;;;;;4954771;29;20162;-79
2021/06/20 10:09:35;;;;;;;21.75;19.65;;;23.10;59.90;;;;;;4954816;29;20166;-79
2021/06/20 10:12:02;;;;;;;21.48;19.27;;;23.20;59.80;;;;;;4954852;29;20193;-79
2021/06/20 10:14:28;;;;;;;22.23;19.92;;;23.10;60.00;;;;;;4954722;29;20237;-79
2021/06/20 10:17:00;;;;;;;20.70;18.60;;;23.20;60.00;;;;;;4955835;29;20252;-79
2021/06/20 10:19:27;;;;;;;21.02;18.92;;;23.20;59.80;;;;;;4954637;29;20157;-79
2021/06/20 10:22:09;;;;;;;21.13;18.92;;;23.20;59.70;;;;;;4954702;29;20627;-79
2021/06/20 10:24:45;;;;;;;21.83;19.63;;;23.30;59.60;;;;;;4954548;29;20650;-79
2021/06/20 10:27:14;;;;;;;21.90;19.58;;;23.30;59.40;;;;;;4906696;29;20684;-79
2021/06/20 10:29:41;;;;;;;22.23;19.98;;;23.30;59.60;;;;;;4954785;29;20181;-79
2021/06/20 10:32:17;;;;;;;21.60;19.40;;;23.30;59.60;;;;;;4922292;29;20232;-79
2021/06/20 10:34:53;;;;;;;21.40;19.30;;;23.20;59.70;;;;;;4906599;29;20188;-79
2021/06/20 10:37:21;;;;;;;21.25;19.05;;;23.30;59.80;;;;;;4954771;29;20157;-79
2021/06/20 10:39:49;;;;;;;21.02;18.92;;;23.30;59.70;;;;;;4954923;29;20621;-79
2021/06/20 10:42:15;;;;;;;21.25;19.15;;;23.30;59.80;;;;;;4954857;29;20164;-79
2021/06/20 10:44:46;;;;;;;21.65;19.48;;;23.40;59.50;;;;;;4956392;29;20185;-80
2021/06/20 10:47:12;;;;;;;21.48;19.27;;;23.40;59.50;;;;;;4955042;29;20173;-80
2021/06/20 10:49:39;;;;;;;22.17;19.98;;;23.40;59.40;;;;;;4955782;29;20162;-80
2021/06/20 10:52:20;;;;;;;21.67;19.58;;;23.40;59.50;;;;;;4956923;29;20158;-79
2021/06/20 10:54:52;;;;;;;21.42;19.10;;;23.40;59.60;;;;;;4957773;28;20169;-79
2021/06/20 10:57:26;;;;;;;21.83;19.52;;;23.30;59.80;;;;;;4957446;28;20150;-79
2021/06/20 10:59:57;;;;;;;21.73;19.42;;;23.20;59.70;;;;;;4956747;28;20213;-79
2021/06/20 11:02:24;;;;;;;21.13;18.95;;;23.20;59.90;;;;;;4960043;29;20161;-79
2021/06/20 11:04:49;;;;;;;22.15;19.52;;;23.20;60.10;;;;;;4961272;28;20196;-78
2021/06/20 11:07:24;;;;;;;21.48;19.27;;;23.20;59.80;;;;;;4960337;29;20173;-80
2021/06/20 11:09:50;;;;;;;20.98;18.83;;;23.20;60.00;;;;;;4960215;29;20180;-80
2021/06/20 11:12:19;;;;;;;21.35;19.10;;;23.30;60.00;;;;;;4961926;29;20158;-79
2021/06/20 11:14:49;;;;;;;21.95;19.65;;;23.20;59.90;;;;;;4928072;29;20189;-79
2021/06/20 11:17:18;;;;;;;21.88;19.67;;;23.30;59.70;;;;;;4913702;29;20591;-79
2021/06/20 11:19:47;;;;;;;21.42;19.33;;;23.40;59.50;;;;;;4912455;29;20556;-79
2021/06/20 11:22:16;;;;;;;22.05;19.85;;;23.40;59.60;;;;;;4944196;29;20185;-79
2021/06/20 11:24:48;;;;;;;21.38;19.23;;;23.30;59.80;;;;;;4927613;29;20205;-79
2021/06/20 11:27:17;;;;;;;22.25;19.95;;;23.20;60.00;;;;;;4913580;29;20221;-79
2021/06/20 11:29:47;;;;;;;21.48;19.23;;;23.20;60.10;;;;;;4961833;29;20253;-79
2021/06/20 11:32:25;;;;;;;21.80;19.60;;;23.20;60.20;;;;;;4961694;29;20642;-79
2021/06/20 11:35:04;;;;;;;21.58;19.38;;;23.20;60.30;;;;;;4961121;29;20157;-79
2021/06/20 11:37:34;;;;;;;21.63;19.45;;;23.20;60.10;;;;;;4928307;29;20182;-79
2021/06/20 11:40:03;;;;;;;21.25;19.15;;;23.10;60.20;;;;;;4959759;29;20185;-79
2021/06/20 11:42:35;;;;;;;22.67;20.38;;;23.10;60.30;;;;;;4944600;29;20154;-79
2021/06/20 11:45:06;;;;;;;22.38;20.17;;;23.10;60.60;;;;;;4944199;29;20201;-79
2021/06/20 11:47:37;;;;;;;21.50;19.35;;;23.10;60.30;;;;;;4961250;28;20154;-79
2021/06/20 11:50:13;;;;;;;21.88;19.70;;;23.20;61.30;;;;;;4945352;29;20621;-80
2021/06/20 11:52:40;;;;;;;22.00;19.65;;;23.20;60.40;;;;;;4962704;28;20181;-79
2021/06/20 11:55:09;;;;;;;21.70;19.40;;;23.20;60.50;;;;;;4963928;28;20173;-79
2021/06/20 11:57:35;;;;;;;21.55;19.35;;;23.10;60.40;;;;;;4961572;28;20158;-79
2021/06/20 12:00:17;;;;;;;20.85;18.75;;;23.10;60.40;;;;;;4961306;29;20213;-80
2021/06/20 12:02:43;;;;;;;21.85;19.55;;;23.10;60.50;;;;;;4959965;29;20161;-79
2021/06/20 12:05:13;;;;;;;22.95;20.48;;;23.10;60.60;;;;;;4959852;29;20612;-79
2021/06/20 12:07:39;;;;;;;20.88;18.77;;;23.20;60.50;;;;;;4944470;29;20613;-79
2021/06/20 12:10:05;;;;;;;21.13;19.02;;;23.10;60.30;;;;;;4960597;29;20158;-79
2021/06/20 12:12:32;;;;;;;21.42;19.17;;;23.10;60.60;;;;;;4959973;28;20501;-79
2021/06/20 12:15:01;;;;;;;21.67;19.50;;;23.10;60.60;;;;;;4962081;28;20161;-79
2021/06/20 12:17:28;;;;;;;22.08;19.77;;;23.10;60.80;;;;;;4912254;29;20724;-79
2021/06/20 12:19:56;;;;;;;21.73;19.45;;;23.10;60.70;;;;;;4927663;29;20189;-79
2021/06/20 12:22:23;;;;;;;21.10;18.95;;;23.20;60.70;;;;;;4928761;29;20181;-79
2021/06/20 12:24:53;;;;;;;21.20;18.92;;;23.20;60.70;;;;;;4912416;29;20239;-78
2021/06/20 12:27:35;;;;;;;22.98;20.23;;;23.20;60.50;;;;;;4962169;28;20317;-79
2021/06/20 12:30:19;;;;;;;21.17;19.00;;;23.20;60.60;;;;;;4961653;28;20173;-80